Time;durP1;ratioP1;P1;durP2;ratioP2;P2;SDS_P1;SDS_P2;PMS_P1;PMS_P2;Temp;Humidity;BMP_temperature;BMP_pressure;BME280_temperature;BME280_humidity;BME280_pressure;Samples;Min_cycle;Max_cycle;Signal;HPM_P1;HPM_P2
2021/07/27 00:02:11;;;;;;;8.80;7.33;;;17.90;99.90;;;;;;6273154;22;20391;-93
2021/07/27 00:04:38;;;;;;;10.80;8.40;;;17.80;99.90;;;;;;6272233;22;20430;-93
2021/07/27 00:07:06;;;;;;;10.40;8.00;;;17.80;99.90;;;;;;6272401;22;20429;-93
2021/07/27 00:09:33;;;;;;;10.30;8.70;;;17.80;99.90;;;;;;6272942;22;20472;-94
2021/07/27 00:12:00;;;;;;;8.30;7.50;;;17.90;99.90;;;;;;6272396;22;20396;-92
2021/07/27 00:14:27;;;;;;;11.10;7.70;;;18.00;99.90;;;;;;6272801;22;20427;-91
2021/07/27 00:16:53;;;;;;;9.83;8.60;;;18.00;99.90;;;;;;6272730;22;20415;-93
2021/07/27 00:19:20;;;;;;;8.30;6.83;;;17.90;99.90;;;;;;6273190;22;20392;-93
2021/07/27 00:21:47;;;;;;;8.30;7.47;;;17.80;99.90;;;;;;6273113;22;20392;-93
2021/07/27 00:24:15;;;;;;;7.13;6.43;;;17.80;99.90;;;;;;6273100;22;20412;-92
2021/07/27 00:26:42;;;;;;;11.37;6.43;;;17.70;99.90;;;;;;6272784;22;20431;-92
2021/07/27 00:29:10;;;;;;;8.30;6.77;;;17.60;99.90;;;;;;6273127;22;20410;-95
2021/07/27 00:31:37;;;;;;;9.03;7.20;;;17.60;99.90;;;;;;6273605;22;20392;-94
2021/07/27 00:34:03;;;;;;;7.63;6.37;;;17.60;99.90;;;;;;6274043;22;20557;-94
2021/07/27 00:36:30;;;;;;;8.60;7.30;;;17.60;99.90;;;;;;6273491;22;20415;-92
2021/07/27 00:38:58;;;;;;;7.83;6.70;;;17.60;99.90;;;;;;6273721;22;20388;-92
2021/07/27 00:41:32;;;;;;;9.57;7.70;;;17.50;99.90;;;;;;6272886;22;20423;-93
2021/07/27 00:44:16;;;;;;;10.93;8.57;;;17.60;99.90;;;;;;6272729;22;20439;-91
2021/07/27 00:47:04;;;;;;;10.53;9.43;;;17.60;99.90;;;;;;6272909;22;20434;-92
2021/07/27 00:49:57;;;;;;;12.73;10.93;;;17.70;99.90;;;;;;6273358;22;20390;-92
2021/07/27 00:52:30;;;;;;;12.80;11.60;;;17.60;99.90;;;;;;6272887;22;20392;-93
2021/07/27 00:54:58;;;;;;;12.57;9.30;;;17.60;99.90;;;;;;6272659;22;20407;-94
2021/07/27 00:57:26;;;;;;;15.23;10.60;;;17.60;99.90;;;;;;6272915;22;20464;-93
2021/07/27 00:59:53;;;;;;;14.93;10.50;;;17.50;99.90;;;;;;6272739;22;20467;-93
2021/07/27 01:02:19;;;;;;;15.53;10.90;;;17.50;99.90;;;;;;6272827;22;20459;-91
2021/07/27 01:04:46;;;;;;;13.20;8.90;;;17.50;99.90;;;;;;6272671;22;20416;-92
2021/07/27 01:07:13;;;;;;;13.00;10.03;;;17.40;99.90;;;;;;6273062;22;20407;-93
2021/07/27 01:09:52;;;;;;;13.97;10.87;;;17.50;99.90;;;;;;6274423;22;20435;-91
2021/07/27 01:12:31;;;;;;;12.43;10.97;;;17.40;99.90;;;;;;6275237;22;20467;-92
2021/07/27 01:14:59;;;;;;;13.63;10.60;;;17.40;99.90;;;;;;6275001;22;20414;-90
2021/07/27 01:17:39;;;;;;;13.83;9.93;;;17.40;99.90;;;;;;6275524;22;20384;-93
2021/07/27 01:20:13;;;;;;;12.00;10.77;;;17.40;99.90;;;;;;6275293;22;20465;-92
2021/07/27 01:39:25;;;;;;;9.93;8.93;;;17.30;99.90;;;;;;6274781;22;20414;-94
2021/07/27 01:42:12;;;;;;;12.50;10.33;;;17.20;99.90;;;;;;6274708;22;20407;-93
2021/07/27 01:44:44;;;;;;;12.73;11.47;;;17.20;99.90;;;;;;6274652;22;20447;-93
2021/07/27 01:47:12;;;;;;;14.43;10.73;;;17.10;99.90;;;;;;6275506;22;20432;-93
2021/07/27 01:49:40;;;;;;;12.40;9.87;;;17.10;99.90;;;;;;6276001;22;20455;-92
2021/07/27 01:52:10;;;;;;;13.73;10.40;;;17.00;99.90;;;;;;6275432;22;20377;-93
2021/07/27 01:55:08;;;;;;;11.43;9.50;;;17.10;99.90;;;;;;6274785;22;20478;-93
2021/07/27 01:57:35;;;;;;;13.20;9.67;;;17.10;99.90;;;;;;6275045;22;20424;-92
2021/07/27 02:00:08;;;;;;;8.87;7.97;;;17.00;99.90;;;;;;6275375;22;20459;-92
2021/07/27 02:02:35;;;;;;;11.80;8.93;;;17.00;99.90;;;;;;6274894;22;20411;-94
2021/07/27 02:05:02;;;;;;;10.00;9.00;;;17.00;99.90;;;;;;6274084;22;20409;-94
2021/07/27 02:07:29;;;;;;;10.40;9.17;;;17.00;99.90;;;;;;6274205;22;20468;-94
2021/07/27 02:10:03;;;;;;;7.87;7.10;;;17.10;99.90;;;;;;6274953;22;20388;-94
2021/07/27 02:12:37;;;;;;;8.93;8.03;;;17.00;99.90;;;;;;6274725;22;20396;-91
2021/07/27 02:15:18;;;;;;;9.97;7.60;;;17.00;99.90;;;;;;6274270;22;20391;-92
2021/07/27 02:17:45;;;;;;;8.00;7.20;;;17.10;99.90;;;;;;6274372;22;20380;-93
2021/07/27 02:20:12;;;;;;;8.80;7.43;;;17.10;99.90;;;;;;6273783;22;20407;-92
2021/07/27 02:22:39;;;;;;;9.67;7.90;;;17.10;99.90;;;;;;6274246;22;20481;-92
2021/07/27 02:25:09;;;;;;;9.00;8.10;;;17.10;99.90;;;;;;6273809;22;20408;-93
2021/07/27 02:27:36;;;;;;;8.27;7.13;;;17.10;99.90;;;;;;6274195;22;20515;-94
2021/07/27 02:30:06;;;;;;;8.80;7.33;;;17.10;99.90;;;;;;6274168;22;20415;-93
2021/07/27 02:32:33;;;;;;;10.03;8.13;;;17.10;99.90;;;;;;6274328;22;20438;-94
2021/07/27 02:35:00;;;;;;;8.77;7.83;;;17.10;99.90;;;;;;6273604;22;20482;-93
2021/07/27 02:37:27;;;;;;;9.63;8.63;;;17.00;99.90;;;;;;6273544;22;20473;-93
2021/07/27 02:39:54;;;;;;;11.43;8.93;;;17.10;99.90;;;;;;6273839;22;20413;-94
2021/07/27 02:42:22;;;;;;;9.37;8.47;;;17.10;99.90;;;;;;6274332;22;20393;-92
2021/07/27 02:44:49;;;;;;;9.97;7.77;;;16.90;99.90;;;;;;6273942;22;20423;-95
2021/07/27 02:47:16;;;;;;;9.57;8.50;;;17.00;99.90;;;;;;6273836;22;20427;-94
2021/07/27 02:49:43;;;;;;;9.20;8.30;;;16.90;99.90;;;;;;6274081;22;20419;-92
2021/07/27 02:52:20;;;;;;;9.73;8.77;;;16.90;99.90;;;;;;6273478;22;20400;-94
2021/07/27 02:54:47;;;;;;;12.47;8.73;;;17.00;99.90;;;;;;6273349;22;20428;-93
2021/07/27 02:57:14;;;;;;;9.97;9.07;;;17.00;99.90;;;;;;6274029;22;20400;-93
2021/07/27 02:59:42;;;;;;;10.83;9.50;;;16.90;99.90;;;;;;6274121;22;20396;-93
2021/07/27 03:02:09;;;;;;;11.07;9.93;;;16.90;99.90;;;;;;6275069;22;20459;-92
2021/07/27 03:04:35;;;;;;;10.87;9.87;;;17.00;99.90;;;;;;6274413;22;20440;-93
2021/07/27 03:07:05;;;;;;;11.23;10.07;;;17.00;99.90;;;;;;6274309;22;20484;-92
2021/07/27 03:09:34;;;;;;;13.00;9.20;;;17.00;99.90;;;;;;6274146;22;20400;-92
2021/07/27 03:12:04;;;;;;;15.10;9.87;;;16.90;99.90;;;;;;6273805;22;20385;-93
2021/07/27 03:14:30;;;;;;;11.77;10.57;;;16.90;99.90;;;;;;6274266;22;20420;-93
2021/07/27 03:16:59;;;;;;;11.97;9.90;;;16.80;99.90;;;;;;6274273;22;20422;-93
2021/07/27 03:19:25;;;;;;;15.20;10.90;;;16.80;99.90;;;;;;6273953;22;20460;-92
2021/07/27 03:21:52;;;;;;;12.00;10.90;;;16.80;99.90;;;;;;6273756;22;20397;-93
2021/07/27 03:24:19;;;;;;;11.10;9.67;;;16.90;99.90;;;;;;6273590;22;20442;-92
2021/07/27 03:26:46;;;;;;;11.80;10.60;;;17.00;99.90;;;;;;6273440;22;20463;-93
2021/07/27 03:29:13;;;;;;;12.70;11.30;;;17.00;99.90;;;;;;6273613;22;20418;-93
2021/07/27 03:31:39;;;;;;;13.20;10.83;;;17.00;99.90;;;;;;6273723;22;20423;-93
2021/07/27 03:34:07;;;;;;;17.13;11.83;;;17.00;99.90;;;;;;6273442;22;20403;-92
2021/07/27 03:36:34;;;;;;;12.87;9.90;;;17.00;99.90;;;;;;6273214;22;20463;-92
2021/07/27 03:39:01;;;;;;;15.37;10.47;;;16.90;99.90;;;;;;6273443;22;20388;-92
2021/07/27 03:41:28;;;;;;;11.70;10.50;;;16.90;99.90;;;;;;6273283;22;20471;-91
2021/07/27 03:43:54;;;;;;;11.73;10.07;;;16.90;99.90;;;;;;6266894;22;20428;-93
2021/07/27 03:46:21;;;;;;;12.07;10.87;;;17.00;99.90;;;;;;6247532;23;20404;-93
2021/07/27 03:48:49;;;;;;;13.30;11.27;;;17.00;99.90;;;;;;6263228;22;20384;-91
2021/07/27 03:51:17;;;;;;;11.23;10.23;;;17.10;99.90;;;;;;6273868;22;20392;-91
2021/07/27 03:53:44;;;;;;;11.93;10.57;;;17.10;99.90;;;;;;6253805;23;20998;-93
2021/07/27 03:56:12;;;;;;;12.03;10.80;;;17.10;99.90;;;;;;6249213;23;20415;-92
2021/07/27 03:58:42;;;;;;;16.47;14.87;;;17.20;99.90;;;;;;6249892;23;20468;-91
2021/07/27 04:01:10;;;;;;;14.10;10.80;;;17.10;99.90;;;;;;6254559;23;20464;-93
2021/07/27 04:03:37;;;;;;;12.53;10.10;;;17.10;99.90;;;;;;6257905;23;20425;-92
2021/07/27 04:06:05;;;;;;;12.60;11.10;;;17.10;99.90;;;;;;6265539;23;20414;-92
2021/07/27 04:08:33;;;;;;;15.00;10.63;;;17.20;99.90;;;;;;6253446;23;20758;-93
2021/07/27 04:11:04;;;;;;;17.13;13.73;;;17.20;99.90;;;;;;6260067;23;20426;-93
2021/07/27 04:13:32;;;;;;;16.93;13.60;;;17.10;99.90;;;;;;6263476;22;20437;-89
2021/07/27 04:16:01;;;;;;;18.83;13.73;;;17.10;99.90;;;;;;6247864;23;20415;-90
2021/07/27 04:18:28;;;;;;;13.47;12.07;;;17.10;99.90;;;;;;6249654;23;20400;-93
2021/07/27 04:20:56;;;;;;;17.70;12.70;;;17.10;99.90;;;;;;6246641;23;20411;-90
2021/07/27 04:23:23;;;;;;;18.97;12.70;;;17.10;99.90;;;;;;6247802;23;20515;-91
2021/07/27 04:25:51;;;;;;;12.57;11.03;;;17.10;99.90;;;;;;6262768;23;20434;-91
2021/07/27 04:28:18;;;;;;;15.70;11.37;;;17.00;99.90;;;;;;6261834;23;20464;-91
2021/07/27 04:30:45;;;;;;;15.23;11.70;;;17.10;99.90;;;;;;6247790;23;20417;-91
2021/07/27 04:33:12;;;;;;;15.80;12.67;;;17.10;99.90;;;;;;6248898;23;20558;-90
2021/07/27 04:35:39;;;;;;;12.40;11.07;;;17.10;99.90;;;;;;6258302;23;20477;-90
2021/07/27 04:38:06;;;;;;;18.20;12.30;;;17.10;99.90;;;;;;6250920;23;20438;-92
2021/07/27 04:40:33;;;;;;;14.00;11.37;;;17.20;99.90;;;;;;6255647;23;20899;-92
2021/07/27 04:43:04;;;;;;;14.63;11.30;;;17.20;99.90;;;;;;6246901;23;20427;-92
2021/07/27 04:45:31;;;;;;;19.93;11.50;;;17.30;99.90;;;;;;6250246;23;20731;-93
2021/07/27 04:47:58;;;;;;;13.23;11.30;;;17.30;99.90;;;;;;6256642;22;20443;-87
2021/07/27 04:50:25;;;;;;;11.40;10.27;;;17.30;99.90;;;;;;6245898;23;20487;-86
2021/07/27 04:52:57;;;;;;;11.13;10.00;;;17.30;99.90;;;;;;6246644;23;20871;-89
2021/07/27 04:55:25;;;;;;;13.63;9.30;;;17.30;99.90;;;;;;6254598;23;20408;-89
2021/07/27 04:57:52;;;;;;;11.33;10.13;;;17.30;99.90;;;;;;6249174;23;20408;-89
2021/07/27 05:00:27;;;;;;;17.13;11.87;;;17.30;99.90;;;;;;6253932;23;20388;-88
2021/07/27 05:02:55;;;;;;;12.57;10.87;;;17.30;99.90;;;;;;6266259;22;20375;-89
2021/07/27 05:05:22;;;;;;;12.17;10.70;;;17.30;99.90;;;;;;6271684;22;20388;-89
2021/07/27 05:07:49;;;;;;;13.30;11.83;;;17.30;99.90;;;;;;6255226;23;20444;-88
2021/07/27 05:10:15;;;;;;;12.67;10.90;;;17.40;99.90;;;;;;6245257;23;20941;-89
2021/07/27 05:15:29;;;;;;;11.50;10.30;;;17.50;99.90;;;;;;6217030;23;20424;-84
2021/07/27 05:17:56;;;;;;;12.67;11.03;;;17.90;99.90;;;;;;6216948;23;20467;-84
2021/07/27 05:20:22;;;;;;;12.43;10.00;;;18.30;99.90;;;;;;6216830;23;20410;-85
2021/07/27 05:22:49;;;;;;;12.37;9.83;;;18.80;99.90;;;;;;6210408;23;20417;-85
2021/07/27 05:25:16;;;;;;;11.83;10.40;;;19.30;99.90;;;;;;6214349;23;20437;-87
2021/07/27 05:27:43;;;;;;;9.57;8.47;;;19.80;99.90;;;;;;6224017;23;20445;-83
2021/07/27 05:30:12;;;;;;;10.60;9.00;;;20.30;99.90;;;;;;6216371;23;20408;-86
2021/07/27 05:32:40;;;;;;;11.23;10.17;;;20.70;99.90;;;;;;6215536;23;20413;-86
2021/07/27 05:35:08;;;;;;;16.27;9.53;;;21.00;99.90;;;;;;6216548;23;20429;-84
2021/07/27 05:37:35;;;;;;;9.57;8.67;;;21.30;99.90;;;;;;6215336;23;20399;-83
2021/07/27 05:40:02;;;;;;;14.00;8.93;;;21.60;99.90;;;;;;6215268;23;20404;-83
2021/07/27 05:42:28;;;;;;;9.37;8.40;;;22.00;99.90;;;;;;6223841;23;20899;-86
2021/07/27 05:44:56;;;;;;;9.73;8.73;;;22.30;99.90;;;;;;6225742;23;20486;-88
2021/07/27 05:47:23;;;;;;;9.10;8.20;;;22.70;99.90;;;;;;6235844;23;20436;-87
2021/07/27 05:49:51;;;;;;;9.90;8.83;;;22.90;99.90;;;;;;6230649;23;20408;-88
2021/07/27 05:52:18;;;;;;;9.90;8.83;;;23.00;99.90;;;;;;6222003;23;20412;-90
2021/07/27 05:54:51;;;;;;;10.60;8.77;;;22.90;99.90;;;;;;6218140;23;20439;-89
2021/07/27 05:57:21;;;;;;;10.00;8.13;;;22.70;99.90;;;;;;6221374;23;20424;-89
2021/07/27 05:59:49;;;;;;;13.73;9.17;;;22.90;99.90;;;;;;6219974;23;20440;-90
2021/07/27 06:02:21;;;;;;;9.87;8.83;;;23.30;99.90;;;;;;6219077;23;20421;-90
2021/07/27 06:04:48;;;;;;;11.50;8.60;;;23.50;99.90;;;;;;6224950;23;20429;-89
2021/07/27 06:07:18;;;;;;;8.53;7.67;;;23.90;99.90;;;;;;6243837;23;20425;-89
2021/07/27 06:09:45;;;;;;;9.00;7.57;;;24.40;99.90;;;;;;6234486;23;20401;-89
2021/07/27 06:12:13;;;;;;;9.23;7.73;;;25.10;99.90;;;;;;6239560;23;20404;-90
2021/07/27 06:14:39;;;;;;;9.43;8.53;;;25.50;99.90;;;;;;6243489;23;20444;-92
2021/07/27 06:17:06;;;;;;;9.90;8.80;;;25.70;98.60;;;;;;6220271;23;20741;-89
2021/07/27 06:19:33;;;;;;;11.33;9.53;;;26.00;97.60;;;;;;6222788;23;21106;-89
2021/07/27 06:22:00;;;;;;;9.40;8.40;;;26.20;96.50;;;;;;6222510;23;20409;-91
2021/07/27 06:24:28;;;;;;;7.93;7.23;;;26.30;96.40;;;;;;6218708;23;20454;-90
2021/07/27 06:26:55;;;;;;;8.43;6.87;;;26.30;96.70;;;;;;6218332;23;20412;-90
2021/07/27 06:29:22;;;;;;;8.27;7.50;;;26.50;96.40;;;;;;6217229;23;20461;-90
2021/07/27 06:31:48;;;;;;;9.13;8.17;;;26.40;95.70;;;;;;6218832;23;20414;-91
2021/07/27 06:34:15;;;;;;;10.40;9.40;;;26.30;95.70;;;;;;6217393;23;20754;-91
2021/07/27 06:36:43;;;;;;;9.23;8.23;;;26.10;95.70;;;;;;6217845;23;20408;-90
2021/07/27 06:39:09;;;;;;;8.60;7.47;;;25.80;96.30;;;;;;6217204;23;20415;-91
2021/07/27 06:41:37;;;;;;;9.80;8.03;;;25.50;96.80;;;;;;6218419;23;20413;-91
2021/07/27 06:44:05;;;;;;;9.83;8.70;;;25.20;97.00;;;;;;6220111;23;20440;-90
2021/07/27 06:46:32;;;;;;;13.40;8.40;;;24.80;97.60;;;;;;6219265;23;20409;-91
2021/07/27 06:48:59;;;;;;;9.10;8.10;;;24.40;98.60;;;;;;6219502;23;20753;-90
2021/07/27 06:51:26;;;;;;;9.53;8.60;;;24.10;99.10;;;;;;6235654;23;20399;-90
2021/07/27 06:53:53;;;;;;;9.30;8.20;;;23.90;99.90;;;;;;6242918;23;20414;-90
2021/07/27 06:56:20;;;;;;;14.37;8.53;;;23.70;99.90;;;;;;6222526;23;20397;-90
2021/07/27 06:58:48;;;;;;;9.70;8.70;;;23.60;99.90;;;;;;6242334;23;20409;-91
2021/07/27 07:01:14;;;;;;;10.93;7.70;;;24.00;99.90;;;;;;6224792;23;20397;-91
2021/07/27 07:03:44;;;;;;;10.50;8.10;;;24.10;99.90;;;;;;6220518;23;20417;-91
2021/07/27 07:06:13;;;;;;;11.30;7.77;;;24.90;99.80;;;;;;6220668;23;20420;-90
2021/07/27 07:08:40;;;;;;;8.00;7.03;;;26.10;97.50;;;;;;6219164;23;20439;-90
2021/07/27 07:11:07;;;;;;;9.17;7.47;;;27.00;96.70;;;;;;6223723;23;20411;-90
2021/07/27 07:13:34;;;;;;;12.73;7.93;;;27.70;94.30;;;;;;6218229;23;20488;-90
2021/07/27 07:16:08;;;;;;;10.30;7.67;;;28.20;93.30;;;;;;6240405;23;20412;-90
2021/07/27 07:18:34;;;;;;;8.17;7.03;;;28.50;92.00;;;;;;6241663;23;20379;-90
2021/07/27 07:21:04;;;;;;;8.50;6.93;;;28.60;92.20;;;;;;6241341;23;20420;-89
2021/07/27 07:23:30;;;;;;;8.90;8.10;;;29.00;91.20;;;;;;6239319;23;20439;-90
2021/07/27 07:25:57;;;;;;;10.73;7.50;;;28.70;90.30;;;;;;6231174;23;20413;-90
2021/07/27 07:28:24;;;;;;;7.70;6.90;;;28.20;91.40;;;;;;6229270;23;20439;-89
2021/07/27 07:30:53;;;;;;;15.10;7.60;;;28.70;91.30;;;;;;6243391;23;20468;-90
2021/07/27 07:33:22;;;;;;;9.23;7.20;;;29.70;89.30;;;;;;6241737;23;20440;-89
2021/07/27 07:35:49;;;;;;;9.87;6.53;;;30.40;86.10;;;;;;6241960;23;20433;-90
2021/07/27 07:38:15;;;;;;;10.00;7.07;;;31.00;83.50;;;;;;6232530;23;20433;-90
2021/07/27 07:40:43;;;;;;;7.87;6.57;;;30.40;83.70;;;;;;6221277;23;20425;-90
2021/07/27 07:43:10;;;;;;;7.60;6.70;;;29.20;85.60;;;;;;6221274;23;20470;-90
2021/07/27 07:45:37;;;;;;;7.87;7.07;;;28.60;88.20;;;;;;6221000;23;20390;-90
2021/07/27 07:48:04;;;;;;;10.83;7.07;;;28.30;89.60;;;;;;6219171;23;20440;-90
2021/07/27 07:50:33;;;;;;;7.70;6.30;;;28.40;90.60;;;;;;6220108;23;20463;-90
2021/07/27 07:53:00;;;;;;;15.40;8.00;;;29.70;87.90;;;;;;6218961;23;20412;-89
2021/07/27 07:55:28;;;;;;;10.33;6.33;;;29.70;87.10;;;;;;6228833;23;20413;-89
2021/07/27 07:57:55;;;;;;;8.30;6.73;;;30.30;86.70;;;;;;6217050;23;20413;-90
2021/07/27 08:00:23;;;;;;;8.70;7.00;;;30.60;83.30;;;;;;6217529;23;20978;-89
2021/07/27 08:02:51;;;;;;;8.27;6.97;;;31.00;81.10;;;;;;6218352;23;20390;-90
2021/07/27 08:05:20;;;;;;;7.53;6.63;;;31.10;80.20;;;;;;6221806;23;20428;-90
2021/07/27 08:07:48;;;;;;;7.93;7.00;;;31.70;78.30;;;;;;6220956;23;20413;-90
2021/07/27 08:10:18;;;;;;;7.43;6.73;;;32.60;76.20;;;;;;6219054;23;20424;-90
2021/07/27 08:12:48;;;;;;;8.90;6.80;;;32.90;71.80;;;;;;6217805;23;20417;-90
2021/07/27 08:15:16;;;;;;;8.47;6.90;;;32.50;73.10;;;;;;6218311;23;20445;-90
2021/07/27 08:17:43;;;;;;;6.93;6.27;;;32.40;73.00;;;;;;6217379;23;20504;-90
2021/07/27 08:20:12;;;;;;;10.47;6.90;;;31.80;74.00;;;;;;6215641;23;20397;-90
2021/07/27 08:22:40;;;;;;;11.50;6.00;;;31.80;73.60;;;;;;6232734;23;20393;-90
2021/07/27 08:25:14;;;;;;;6.90;6.20;;;31.40;75.70;;;;;;6228619;23;20962;-91
2021/07/27 08:27:42;;;;;;;6.43;5.90;;;30.80;73.00;;;;;;6193286;23;20475;-90
2021/07/27 08:30:10;;;;;;;6.93;6.27;;;30.40;75.90;;;;;;6217695;23;20842;-91
2021/07/27 08:32:36;;;;;;;6.13;5.60;;;30.20;77.50;;;;;;6216678;23;20408;-91
2021/07/27 08:35:03;;;;;;;8.80;6.50;;;29.80;78.10;;;;;;6218461;23;20435;-92
2021/07/27 08:37:30;;;;;;;6.73;6.13;;;30.00;78.20;;;;;;6225902;23;20407;-91
2021/07/27 08:39:59;;;;;;;7.00;6.37;;;30.70;76.90;;;;;;6229486;23;20456;-91
2021/07/27 08:42:30;;;;;;;6.17;5.73;;;30.90;70.30;;;;;;6219605;23;20405;-91
2021/07/27 08:45:00;;;;;;;7.50;6.90;;;31.80;69.40;;;;;;6240565;23;20405;-91
2021/07/27 08:47:28;;;;;;;6.93;6.43;;;32.20;65.90;;;;;;6242096;23;20792;-91
2021/07/27 08:49:58;;;;;;;5.80;5.30;;;32.10;61.90;;;;;;6228135;23;20432;-90
2021/07/27 08:52:28;;;;;;;6.07;5.47;;;31.20;63.20;;;;;;6240718;23;20401;-89
2021/07/27 08:54:56;;;;;;;5.87;5.37;;;30.90;64.40;;;;;;6227657;23;21001;-91
2021/07/27 08:57:23;;;;;;;5.70;5.30;;;30.70;65.10;;;;;;6217933;23;20463;-91
2021/07/27 08:59:57;;;;;;;7.00;6.50;;;32.00;63.00;;;;;;6236117;23;20389;-91
2021/07/27 09:02:28;;;;;;;6.57;5.97;;;32.50;61.90;;;;;;6238973;23;20416;-92
2021/07/27 09:05:07;;;;;;;6.03;5.50;;;32.50;62.60;;;;;;6220168;23;20443;-91
2021/07/27 09:07:33;;;;;;;6.90;6.20;;;32.90;61.70;;;;;;6219463;23;20396;-92
2021/07/27 09:10:11;;;;;;;7.60;6.83;;;33.30;59.50;;;;;;6218839;23;20441;-90
2021/07/27 09:12:38;;;;;;;6.77;6.17;;;34.10;59.30;;;;;;6220111;23;20416;-90
2021/07/27 09:15:10;;;;;;;5.50;5.13;;;34.90;58.20;;;;;;6218787;23;20455;-91
2021/07/27 09:17:39;;;;;;;7.03;6.43;;;34.00;58.60;;;;;;6222370;23;20404;-91
2021/07/27 09:20:07;;;;;;;6.33;5.83;;;34.70;57.40;;;;;;6222354;23;20405;-91
2021/07/27 09:22:44;;;;;;;6.80;6.10;;;34.70;57.40;;;;;;6230420;23;20458;-91
2021/07/27 09:25:11;;;;;;;6.23;5.63;;;35.50;55.60;;;;;;6231018;23;20512;-91
2021/07/27 09:27:38;;;;;;;8.37;6.30;;;36.00;54.80;;;;;;6232851;23;20407;-90
2021/07/27 09:30:07;;;;;;;8.33;6.10;;;34.90;54.40;;;;;;6225990;23;20426;-91
2021/07/27 09:32:34;;;;;;;6.47;5.77;;;32.90;57.80;;;;;;6223094;23;20401;-91
2021/07/27 09:35:04;;;;;;;6.50;5.87;;;32.20;60.40;;;;;;6219774;23;20428;-91
2021/07/27 09:37:31;;;;;;;7.77;6.43;;;32.20;61.70;;;;;;6219324;23;20389;-90
2021/07/27 09:40:06;;;;;;;7.30;6.43;;;32.90;60.30;;;;;;6220517;23;20444;-90
2021/07/27 09:42:35;;;;;;;6.77;6.20;;;34.00;59.40;;;;;;6220222;23;20424;-91
2021/07/27 09:45:04;;;;;;;7.30;6.57;;;35.60;56.40;;;;;;6220664;23;20409;-90
2021/07/27 09:47:32;;;;;;;6.27;5.87;;;36.20;53.60;;;;;;6218768;23;20880;-91
2021/07/27 09:49:59;;;;;;;7.33;6.70;;;36.50;53.50;;;;;;6218181;23;20405;-92
2021/07/27 09:52:27;;;;;;;6.80;6.30;;;37.40;52.90;;;;;;6217901;23;20412;-92
2021/07/27 09:54:54;;;;;;;6.47;6.07;;;37.10;51.40;;;;;;6217196;23;20421;-93
2021/07/27 09:57:21;;;;;;;6.70;6.10;;;36.80;50.50;;;;;;6218280;23;20405;-91
2021/07/27 09:59:50;;;;;;;7.00;6.03;;;36.40;51.70;;;;;;6217680;23;20444;-91
2021/07/27 10:02:19;;;;;;;6.53;5.93;;;37.90;49.90;;;;;;6218204;23;20412;-90
2021/07/27 10:04:51;;;;;;;6.97;6.47;;;38.40;47.40;;;;;;6217162;23;20721;-91
2021/07/27 10:07:27;;;;;;;6.60;6.10;;;36.20;49.60;;;;;;6219348;23;20393;-91
2021/07/27 10:10:05;;;;;;;8.10;6.87;;;35.90;51.70;;;;;;6217903;23;20452;-91
2021/07/27 10:12:34;;;;;;;8.00;7.20;;;36.40;52.00;;;;;;6219770;23;20397;-91
2021/07/27 10:15:11;;;;;;;7.10;6.27;;;37.60;50.30;;;;;;6218065;23;20436;-92
2021/07/27 10:17:50;;;;;;;7.20;6.50;;;38.70;48.10;;;;;;6219594;23;20416;-91
2021/07/27 10:20:29;;;;;;;7.03;6.53;;;38.40;47.40;;;;;;6222717;23;20429;-91
2021/07/27 10:22:56;;;;;;;6.53;6.03;;;37.20;47.60;;;;;;6223265;23;20397;-91
2021/07/27 10:25:24;;;;;;;7.27;6.67;;;36.00;49.70;;;;;;6238820;23;20549;-87
2021/07/27 10:27:53;;;;;;;7.10;6.50;;;35.30;51.10;;;;;;6225324;23;20425;-87
2021/07/27 10:30:31;;;;;;;7.40;6.80;;;34.80;51.70;;;;;;6219049;23;20401;-87
2021/07/27 10:32:58;;;;;;;7.30;6.60;;;34.10;53.40;;;;;;6218067;23;20385;-87
2021/07/27 10:35:28;;;;;;;7.30;6.80;;;35.90;52.90;;;;;;6220282;23;20440;-87
2021/07/27 10:37:55;;;;;;;7.20;6.60;;;37.30;50.70;;;;;;6218757;23;20400;-88
2021/07/27 10:40:29;;;;;;;7.10;6.60;;;37.60;48.20;;;;;;6219229;23;21025;-87
2021/07/27 10:42:59;;;;;;;5.93;5.43;;;38.80;46.70;;;;;;6221375;23;20731;-88
2021/07/27 10:45:27;;;;;;;8.17;7.57;;;39.50;45.50;;;;;;6218488;23;20405;-87
2021/07/27 10:47:55;;;;;;;7.57;6.90;;;37.70;46.40;;;;;;6218944;23;20409;-88
2021/07/27 10:50:30;;;;;;;7.10;6.17;;;37.70;46.80;;;;;;6215940;23;20488;-87
2021/07/27 10:53:02;;;;;;;7.10;6.53;;;37.50;46.90;;;;;;6217943;23;20408;-87
2021/07/27 10:55:30;;;;;;;6.70;6.20;;;37.60;47.60;;;;;;6217594;23;20393;-88
2021/07/27 10:57:57;;;;;;;6.33;5.93;;;38.20;46.10;;;;;;6225787;23;20405;-88
2021/07/27 11:00:31;;;;;;;6.73;6.17;;;38.50;44.90;;;;;;6221470;23;20495;-88
2021/07/27 11:02:58;;;;;;;5.57;5.13;;;39.20;44.70;;;;;;6226999;23;20392;-88
2021/07/27 11:05:25;;;;;;;6.23;5.83;;;40.60;42.90;;;;;;6241501;23;20402;-87
2021/07/27 11:07:53;;;;;;;6.90;6.40;;;40.10;41.30;;;;;;6235007;23;20407;-88
2021/07/27 11:10:21;;;;;;;6.47;5.87;;;40.80;42.30;;;;;;6217347;23;20408;-88
2021/07/27 11:12:49;;;;;;;5.90;5.40;;;40.80;41.20;;;;;;6218077;23;20497;-88
2021/07/27 11:15:18;;;;;;;5.80;5.40;;;41.20;40.80;;;;;;6241737;22;20466;-89
2021/07/27 11:17:46;;;;;;;5.60;5.10;;;40.80;39.30;;;;;;6256951;23;20413;-89
2021/07/27 11:20:15;;;;;;;6.20;5.43;;;40.10;40.30;;;;;;6260607;23;20440;-89
2021/07/27 11:22:43;;;;;;;6.37;5.77;;;39.50;42.70;;;;;;6257470;23;20423;-89
2021/07/27 11:25:12;;;;;;;6.10;5.67;;;39.30;41.60;;;;;;6256274;23;20482;-90
2021/07/27 11:27:39;;;;;;;5.90;5.50;;;39.10;42.30;;;;;;6253565;23;20420;-90
2021/07/27 11:30:09;;;;;;;7.70;5.93;;;39.10;40.70;;;;;;6265348;22;20396;-89
2021/07/27 11:32:41;;;;;;;6.57;6.07;;;37.80;42.30;;;;;;6273080;22;20397;-87
2021/07/27 11:35:12;;;;;;;6.43;6.03;;;37.20;43.00;;;;;;6274091;22;20408;-88
2021/07/27 11:37:39;;;;;;;6.40;6.00;;;36.70;44.20;;;;;;6273861;22;20410;-87
2021/07/27 11:40:07;;;;;;;7.00;6.37;;;36.20;46.00;;;;;;6273394;22;20503;-88
2021/07/27 11:42:41;;;;;;;7.77;7.07;;;35.40;46.80;;;;;;6271689;22;20471;-90
2021/07/27 11:45:09;;;;;;;6.87;6.13;;;34.60;48.10;;;;;;6254809;23;20431;-87
2021/07/27 11:58:37;;;;;;;6.33;5.73;;;32.10;52.70;;;;;;6253955;22;20787;-93
2021/07/27 12:01:14;;;;;;;7.10;6.33;;;31.80;53.20;;;;;;6152546;23;20867;-90
2021/07/27 12:03:46;;;;;;;6.60;6.00;;;31.80;54.90;;;;;;6272586;22;20439;-92
2021/07/27 12:06:15;;;;;;;5.80;5.40;;;31.50;53.30;;;;;;6269371;23;20454;-93
2021/07/27 12:08:52;;;;;;;6.23;5.83;;;31.40;52.70;;;;;;6260709;23;20476;-92
2021/07/27 12:11:20;;;;;;;6.27;5.67;;;31.50;53.90;;;;;;6257915;23;20491;-93
2021/07/27 12:13:57;;;;;;;6.07;5.50;;;31.30;54.10;;;;;;6261717;22;20416;-91
2021/07/27 12:16:49;;;;;;;6.47;5.87;;;31.10;53.60;;;;;;6257933;22;20455;-91
2021/07/27 12:19:19;;;;;;;6.30;5.57;;;31.00;54.50;;;;;;6260558;22;20444;-91
2021/07/27 12:21:58;;;;;;;6.37;5.87;;;31.20;53.50;;;;;;6270298;22;20428;-93
2021/07/27 12:24:33;;;;;;;5.57;5.17;;;31.50;53.10;;;;;;6266101;23;20427;-93
2021/07/27 12:27:08;;;;;;;4.60;4.30;;;31.80;53.20;;;;;;6263827;23;20391;-91
2021/07/27 12:29:39;;;;;;;9.50;6.20;;;31.90;52.20;;;;;;6266911;22;20422;-91
2021/07/27 12:34:45;;;;;;;5.30;4.90;;;31.70;54.70;;;;;;6245072;22;20448;-89
2021/07/27 12:37:13;;;;;;;4.97;4.57;;;31.90;54.30;;;;;;6247543;23;20418;-90
2021/07/27 12:39:49;;;;;;;5.60;5.20;;;32.50;53.80;;;;;;6246775;23;20788;-89
2021/07/27 12:42:21;;;;;;;5.27;4.77;;;33.30;49.90;;;;;;6246040;23;20929;-88
2021/07/27 13:01:19;;;;;;;4.83;4.37;;;35.50;44.90;;;;;;6011017;23;20457;-87
2021/07/27 13:04:07;;;;;;;5.07;4.63;;;35.80;43.70;;;;;;6117129;23;20419;-88
2021/07/27 13:06:37;;;;;;;4.70;4.33;;;36.90;44.00;;;;;;6126257;23;20410;-88
2021/07/27 13:09:20;;;;;;;5.37;4.87;;;36.50;44.60;;;;;;6200699;23;20412;-88
2021/07/27 13:12:39;;;;;;;7.30;5.30;;;35.60;42.80;;;;;;6232029;23;20429;-88
2021/07/27 13:15:58;;;;;;;5.17;4.67;;;34.30;44.70;;;;;;6057206;23;20753;-88
2021/07/27 13:21:51;;;;;;;6.20;5.60;;;33.70;46.30;;;;;;6019078;23;20483;-89
2021/07/27 13:43:11;;;;;;;5.60;5.17;;;30.80;54.20;;;;;;6152859;23;20411;-89
2021/07/27 13:45:38;;;;;;;5.17;4.77;;;30.90;53.40;;;;;;6204638;23;20408;-91
2021/07/27 13:48:05;;;;;;;5.53;5.03;;;30.90;53.10;;;;;;6251840;23;20392;-85
2021/07/27 13:50:32;;;;;;;5.37;4.87;;;30.80;53.70;;;;;;6251566;23;20404;-84
2021/07/27 13:52:59;;;;;;;6.70;6.10;;;30.70;53.60;;;;;;6250765;23;20764;-84
2021/07/27 13:55:25;;;;;;;5.93;5.23;;;30.60;54.70;;;;;;6252581;23;20415;-83
2021/07/27 13:57:52;;;;;;;6.70;5.00;;;30.40;54.90;;;;;;6251625;23;20414;-84
2021/07/27 14:00:20;;;;;;;5.77;5.30;;;30.60;55.40;;;;;;6251228;23;20830;-83
2021/07/27 14:02:49;;;;;;;6.00;5.50;;;31.00;54.10;;;;;;6251958;23;20438;-84
2021/07/27 14:05:17;;;;;;;6.93;6.07;;;31.30;55.00;;;;;;6251172;23;20400;-85